Time;durP1;ratioP1;P1;durP2;ratioP2;P2;SDS_P1;SDS_P2;PMS_P1;PMS_P2;Temp;Humidity;BMP_temperature;BMP_pressure;BME280_temperature;BME280_humidity;BME280_pressure;Samples;Min_cycle;Max_cycle;Signal;HPM_P1;HPM_P2
2021/06/24 00:02:05;;;;;;;23.65;4.90;;;;;;;23.83;100.00;100809.05;1735269;82;20860;-80
2021/06/24 00:04:32;;;;;;;25.68;4.20;;;;;;;23.85;100.00;100810.07;1735105;82;21047;-81
2021/06/24 00:06:58;;;;;;;22.87;5.12;;;;;;;23.84;100.00;100821.66;1735124;82;21070;-82
2021/06/24 00:09:24;;;;;;;28.83;4.20;;;;;;;23.85;100.00;100817.75;1757783;79;21088;-83
2021/06/24 00:11:50;;;;;;;22.48;4.75;;;;;;;23.85;100.00;100806.73;1809432;79;20947;-83
2021/06/24 00:14:16;;;;;;;28.40;4.53;;;;;;;23.82;100.00;100806.05;1809751;79;21050;-82
2021/06/24 00:16:42;;;;;;;29.10;5.05;;;;;;;23.77;100.00;100802.97;1813743;79;21058;-80
2021/06/24 00:19:08;;;;;;;33.50;4.83;;;;;;;23.74;100.00;100802.29;1809797;79;20876;-82
2021/06/24 00:21:34;;;;;;;34.70;6.40;;;;;;;23.75;100.00;100797.58;1809731;79;20984;-83
2021/06/24 00:24:00;;;;;;;19.15;3.98;;;;;;;23.76;100.00;100797.80;1809749;79;20864;-87
2021/06/24 00:26:26;;;;;;;21.75;4.78;;;;;;;23.73;100.00;100795.73;1809657;79;20872;-82
2021/06/24 00:28:52;;;;;;;26.60;4.70;;;;;;;23.74;100.00;100805.62;1813979;79;21134;-83
2021/06/24 00:31:18;;;;;;;20.12;4.87;;;;;;;23.75;100.00;100808.02;1816872;78;20873;-82
2021/06/24 00:33:43;;;;;;;31.40;5.53;;;;;;;23.77;100.00;100807.69;1826366;77;21102;-82
2021/06/24 00:36:09;;;;;;;24.12;4.72;;;;;;;23.79;100.00;100799.86;1826392;78;20955;-82
2021/06/24 00:38:35;;;;;;;25.57;4.55;;;;;;;23.77;100.00;100793.92;1826425;78;20977;-83
2021/06/24 00:41:02;;;;;;;31.57;5.15;;;;;;;23.77;100.00;100796.67;1826235;78;20932;-80
2021/06/24 00:43:29;;;;;;;30.70;5.25;;;;;;;23.77;100.00;100796.09;1826745;78;21004;-82
2021/06/24 00:45:54;;;;;;;27.22;4.58;;;;;;;23.78;100.00;100794.14;1826258;78;21049;-83
2021/06/24 00:48:20;;;;;;;23.32;4.65;;;;;;;23.79;100.00;100792.41;1805904;78;20857;-85
2021/06/24 00:50:47;;;;;;;24.87;4.58;;;;;;;23.80;100.00;100793.23;1826242;78;20854;-83
2021/06/24 00:53:15;;;;;;;24.67;4.45;;;;;;;23.82;100.00;100801.92;1826110;78;20972;-83
2021/06/24 00:55:46;;;;;;;27.90;4.30;;;;;;;23.85;100.00;100801.81;1826351;78;21488;-85
2021/06/24 00:58:27;;;;;;;24.25;4.35;;;;;;;23.87;100.00;100798.95;1805535;78;21169;-82
2021/06/24 01:00:57;;;;;;;25.02;5.10;;;;;;;23.91;100.00;100797.09;1825992;78;20981;-83
2021/06/24 01:03:24;;;;;;;23.90;4.20;;;;;;;23.91;100.00;100793.55;1775410;80;21064;-82
2021/06/24 01:05:51;;;;;;;23.60;4.70;;;;;;;23.92;100.00;100802.85;1775714;80;21014;-86
2021/06/24 01:08:20;;;;;;;22.42;5.10;;;;;;;23.94;100.00;100802.49;1775813;80;21012;-82
2021/06/24 01:10:49;;;;;;;27.73;5.42;;;;;;;24.00;100.00;100806.06;1775248;80;21074;-82
2021/06/24 01:13:15;;;;;;;24.87;4.53;;;;;;;24.00;100.00;100808.82;1775562;80;20985;-84
2021/06/24 01:15:42;;;;;;;28.92;4.75;;;;;;;24.01;100.00;100806.86;1776068;80;21072;-83
2021/06/24 01:18:09;;;;;;;30.02;4.50;;;;;;;24.04;100.00;100807.55;1776122;80;21041;-82
2021/06/24 01:20:36;;;;;;;21.95;4.75;;;;;;;24.06;100.00;100809.39;1775873;80;21142;-82
2021/06/24 01:23:05;;;;;;;22.32;4.90;;;;;;;24.07;100.00;100799.97;1775667;80;21170;-83
2021/06/24 01:25:31;;;;;;;22.45;4.20;;;;;;;24.11;100.00;100801.45;1775996;80;21592;-84
2021/06/24 01:28:08;;;;;;;26.52;3.85;;;;;;;24.13;100.00;100799.16;1776118;80;21001;-82
2021/06/24 01:30:36;;;;;;;26.82;3.52;;;;;;;24.17;100.00;100797.31;1776242;80;21603;-82
2021/06/24 01:33:04;;;;;;;25.25;4.62;;;;;;;24.19;100.00;100799.95;1786016;80;21564;-83
2021/06/24 01:35:31;;;;;;;18.75;4.20;;;;;;;24.21;100.00;100798.23;1786202;80;21510;-90
2021/06/24 01:38:01;;;;;;;18.23;3.90;;;;;;;24.21;100.00;100794.91;1786128;80;21034;-83
2021/06/24 01:40:29;;;;;;;28.87;4.55;;;;;;;24.21;100.00;100796.86;1700694;84;21051;-82
2021/06/24 01:42:56;;;;;;;23.87;5.17;;;;;;;24.20;100.00;100793.86;1700703;84;21035;-84
2021/06/24 01:45:23;;;;;;;21.57;3.75;;;;;;;24.19;100.00;100794.44;1700766;84;21019;-82
2021/06/24 01:47:50;;;;;;;16.35;3.80;;;;;;;24.19;100.00;100788.93;1700647;84;21081;-83
2021/06/24 01:50:16;;;;;;;18.42;4.05;;;;;;;24.17;100.00;100788.47;1700743;84;21062;-83
2021/06/24 01:52:45;;;;;;;17.87;4.60;;;;;;;24.15;100.00;100795.47;1700475;84;21090;-83
2021/06/24 01:55:13;;;;;;;20.23;3.70;;;;;;;24.12;100.00;100791.48;1700742;84;21082;-83
2021/06/24 01:57:40;;;;;;;21.33;3.70;;;;;;;24.11;100.00;100793.98;1700659;84;21058;-82
2021/06/24 02:00:13;;;;;;;25.62;4.47;;;;;;;24.08;100.00;100788.38;1704704;82;21131;-81
2021/06/24 02:02:42;;;;;;;17.55;4.45;;;;;;;24.08;100.00;100786.42;1709041;82;21062;-84
2021/06/24 02:05:09;;;;;;;30.82;4.60;;;;;;;24.05;100.00;100782.98;1709157;84;21047;-82
2021/06/24 02:07:42;;;;;;;16.77;3.65;;;;;;;24.03;100.00;100774.26;1709144;84;21012;-82
2021/06/24 02:10:11;;;;;;;;;;;;;;;24.02;100.00;100778.97;1711489;82;21012;-84
2021/06/24 02:12:38;;;;;;;21.40;4.50;;;;;;;24.02;100.00;100772.66;1661300;86;21041;-86
2021/06/24 02:15:07;;;;;;;21.17;3.50;;;;;;;24.01;100.00;100771.07;1661298;86;21038;-85
2021/06/24 02:17:34;;;;;;;18.73;4.10;;;;;;;24.01;100.00;100767.73;1661270;86;21014;-83
2021/06/24 02:20:01;;;;;;;24.60;4.35;;;;;;;24.00;100.00;100770.27;1661328;86;21126;-87
2021/06/24 02:22:27;;;;;;;27.62;4.37;;;;;;;24.00;100.00;100763.94;1661490;86;21029;-82
2021/06/24 02:24:53;;;;;;;15.75;3.80;;;;;;;24.00;100.00;100768.90;1661426;85;21266;-82
2021/06/24 02:27:19;;;;;;;16.95;3.77;;;;;;;24.01;100.00;100771.07;1661220;86;20974;-83
2021/06/24 02:29:45;;;;;;;25.43;4.20;;;;;;;24.02;100.00;100769.33;1638807;86;21581;-87
2021/06/24 02:32:12;;;;;;;19.75;4.08;;;;;;;24.02;100.00;100771.29;1663982;84;20866;-81
2021/06/24 02:34:38;;;;;;;15.63;3.83;;;;;;;24.03;100.00;100777.02;1665395;86;21029;-83
2021/06/24 02:37:04;;;;;;;15.25;3.87;;;;;;;24.03;100.00;100774.26;1686021;83;21296;-82
2021/06/24 02:39:30;;;;;;;19.98;4.10;;;;;;;24.06;100.00;100770.84;1714163;83;20987;-89
2021/06/24 02:41:59;;;;;;;19.05;4.12;;;;;;;24.08;100.00;100773.23;1714246;83;21175;-83
2021/06/24 02:44:24;;;;;;;22.50;3.87;;;;;;;24.11;100.00;100773.91;1714035;83;21058;-83
2021/06/24 02:46:50;;;;;;;17.85;4.10;;;;;;;24.18;100.00;100781.03;1714278;83;20983;-83
2021/06/24 02:49:15;;;;;;;18.75;3.70;;;;;;;24.24;100.00;100778.27;1710435;83;21175;-83
2021/06/24 02:51:42;;;;;;;20.43;3.87;;;;;;;24.29;100.00;100784.88;1714443;83;20958;-80
2021/06/24 02:54:08;;;;;;;22.25;3.20;;;;;;;24.36;100.00;100780.19;1714051;83;20907;-86
2021/06/24 02:56:39;;;;;;;17.45;4.33;;;;;;;24.45;100.00;100783.05;1714213;83;21034;-82
2021/06/24 02:59:06;;;;;;;19.60;3.67;;;;;;;24.47;100.00;100771.11;1711536;83;21605;-83
2021/06/24 03:01:33;;;;;;;17.60;3.67;;;;;;;24.53;100.00;100774.97;1679668;85;21071;-81
2021/06/24 03:03:59;;;;;;;19.98;3.58;;;;;;;24.57;100.00;100777.27;1714523;83;21022;-83
2021/06/24 03:06:25;;;;;;;21.20;3.50;;;;;;;24.58;100.00;100775.53;1714529;83;20896;-83
2021/06/24 03:08:51;;;;;;;16.73;3.35;;;;;;;24.62;100.00;100774.25;1728575;80;21571;-82
2021/06/24 03:11:18;;;;;;;22.13;4.25;;;;;;;24.68;100.00;100777.00;1740715;81;21103;-82
2021/06/24 03:13:49;;;;;;;16.25;3.40;;;;;;;24.75;100.00;100779.15;1809652;78;21152;-82
2021/06/24 03:16:16;;;;;;;17.35;3.50;;;;;;;24.79;100.00;100789.69;1809421;79;20976;-82
2021/06/24 03:18:43;;;;;;;24.72;3.90;;;;;;;24.85;100.00;100784.94;1809781;79;21031;-81
2021/06/24 03:21:09;;;;;;;22.95;4.33;;;;;;;24.90;100.00;100794.34;1809742;79;20976;-82
2021/06/24 03:23:35;;;;;;;20.02;4.05;;;;;;;24.95;100.00;100793.88;1809768;79;21668;-82
2021/06/24 03:26:01;;;;;;;18.82;3.90;;;;;;;25.00;100.00;100793.60;1810153;79;21158;-89
2021/06/24 03:28:26;;;;;;;26.62;4.20;;;;;;;25.09;100.00;100801.95;1809806;79;20919;-82
2021/06/24 03:30:52;;;;;;;22.62;3.80;;;;;;;25.22;100.00;100791.67;1809955;79;20895;-83
2021/06/24 03:33:18;;;;;;;24.30;4.33;;;;;;;25.40;100.00;100802.37;1796734;79;20980;-83
2021/06/24 03:35:49;;;;;;;17.95;3.30;;;;;;;25.60;100.00;100797.95;1809823;78;21471;-82
2021/06/24 03:38:12;;;;;;;16.30;3.72;;;;;;;25.89;100.00;100808.34;1807571;79;21051;-82
2021/06/24 03:40:38;;;;;;;20.62;4.10;;;;;;;25.99;100.00;100795.34;1798287;78;20865;-84
2021/06/24 03:43:04;;;;;;;11.85;3.40;;;;;;;26.13;100.00;100807.90;1809719;79;20939;-89
2021/06/24 03:45:30;;;;;;;20.55;4.12;;;;;;;26.28;100.00;100811.19;1809691;78;20968;-87
2021/06/24 03:47:55;;;;;;;13.90;3.67;;;;;;;26.43;100.00;100802.04;1810082;78;21665;-84
2021/06/24 03:50:21;;;;;;;14.38;3.90;;;;;;;26.59;100.00;100807.55;1809802;78;21136;-80
2021/06/24 03:52:47;;;;;;;14.47;3.75;;;;;;;26.65;100.00;100809.41;1809500;78;20935;-83
2021/06/24 03:55:19;;;;;;;22.67;4.10;;;;;;;26.63;100.00;100804.85;1809916;79;20936;-83
2021/06/24 03:57:45;;;;;;;10.75;3.60;;;;;;;26.79;100.00;100810.30;1809360;78;21036;-84
2021/06/24 04:00:13;;;;;;;16.20;3.50;;;;;;;27.02;100.00;100803.43;1809873;78;21219;-80
2021/06/24 04:02:38;;;;;;;19.55;3.77;;;;;;;27.11;100.00;100796.48;1799089;78;21035;-84
2021/06/24 04:05:05;;;;;;;24.75;3.92;;;;;;;27.16;100.00;100797.60;1809605;78;20866;-82
2021/06/24 04:07:31;;;;;;;21.17;3.95;;;;;;;27.19;100.00;100802.98;1809763;78;21036;-83
2021/06/24 04:09:57;;;;;;;15.15;3.67;;;;;;;27.30;100.00;100806.75;1809703;79;21503;-84
2021/06/24 04:12:22;;;;;;;16.02;3.80;;;;;;;27.41;100.00;100800.00;1798739;79;20946;-83
2021/06/24 04:14:49;;;;;;;24.65;3.30;;;;;;;27.51;100.00;100798.60;1798583;79;21000;-83
2021/06/24 04:17:15;;;;;;;16.85;3.98;;;;;;;27.79;100.00;100794.91;1809312;79;21031;-83
2021/06/24 04:19:43;;;;;;;22.37;4.90;;;;;;;28.27;100.00;100789.67;1809542;78;21544;-81
2021/06/24 04:22:10;;;;;;;20.92;4.20;;;;;;;28.81;100.00;100788.97;1809815;78;21469;-83
2021/06/24 04:24:36;;;;;;;20.50;4.17;;;;;;;29.30;100.00;100789.89;1809501;78;21456;-84
2021/06/24 04:27:02;;;;;;;23.92;4.20;;;;;;;29.69;100.00;100797.17;1809772;79;21122;-81
2021/06/24 04:29:28;;;;;;;23.65;4.03;;;;;;;30.19;100.00;100793.31;1809730;78;21476;-84
2021/06/24 04:31:53;;;;;;;19.98;3.77;;;;;;;30.58;100.00;100799.67;1820386;77;20865;-82
2021/06/24 04:34:19;;;;;;;19.70;3.85;;;;;;;31.21;100.00;100805.84;1848280;77;21519;-84
2021/06/24 04:36:45;;;;;;;16.62;3.60;;;;;;;31.36;93.78;100808.86;1848484;77;20971;-84
2021/06/24 04:39:12;;;;;;;17.95;4.08;;;;;;;31.20;96.34;100806.41;1848458;77;21083;-81
2021/06/24 04:41:38;;;;;;;16.57;3.67;;;;;;;30.93;91.28;100805.97;1848389;77;20940;-84
2021/06/24 04:44:05;;;;;;;29.23;4.45;;;;;;;30.48;88.12;100814.35;1848515;77;20938;-87
2021/06/24 04:46:31;;;;;;;12.82;3.50;;;;;;;30.14;90.20;100820.69;1848511;77;20979;-91
2021/06/24 04:48:57;;;;;;;20.23;3.22;;;;;;;30.22;94.86;100808.46;1848400;77;21054;-83
2021/06/24 04:51:23;;;;;;;23.90;4.90;;;;;;;30.18;92.72;100804.25;1847147;77;20996;-83
2021/06/24 04:53:49;;;;;;;25.85;4.35;;;;;;;29.96;89.46;100803.30;1821362;77;20837;-84
2021/06/24 04:56:15;;;;;;;36.40;5.00;;;;;;;29.84;91.06;100796.08;1813370;79;20892;-85
2021/06/24 04:58:41;;;;;;;28.73;3.75;;;;;;;29.72;90.82;100798.39;1813598;79;20935;-85
2021/06/24 05:01:07;;;;;;;24.15;3.58;;;;;;;29.67;95.22;100801.52;1813887;79;20840;-84
2021/06/24 05:03:33;;;;;;;33.28;4.28;;;;;;;29.67;92.27;100805.68;1813541;79;21217;-81
2021/06/24 05:06:01;;;;;;;18.07;4.47;;;;;;;29.66;97.15;100797.94;1813634;79;20998;-84
2021/06/24 05:08:28;;;;;;;34.75;4.65;;;;;;;29.67;95.20;100802.30;1813055;79;21010;-84
2021/06/24 05:10:54;;;;;;;23.52;4.25;;;;;;;29.72;96.06;100813.66;1787121;79;21031;-84
2021/06/24 05:13:20;;;;;;;30.72;4.42;;;;;;;29.90;97.54;100811.02;1813615;79;21609;-86
2021/06/24 05:15:46;;;;;;;46.05;5.47;;;;;;;30.12;92.77;100809.97;1813606;79;21307;-84
2021/06/24 05:18:14;;;;;;;23.07;3.72;;;;;;;30.20;90.92;100807.41;1813408;78;21031;-82
2021/06/24 05:20:44;;;;;;;26.40;4.25;;;;;;;30.14;91.18;100802.62;1813567;79;21030;-85
2021/06/24 05:23:15;;;;;;;27.45;3.98;;;;;;;29.98;88.90;100795.98;1813383;79;21541;-84
2021/06/24 05:25:43;;;;;;;23.40;4.00;;;;;;;29.77;89.93;100798.83;1813672;79;21233;-89
2021/06/24 05:28:09;;;;;;;25.52;4.35;;;;;;;29.54;89.20;100799.02;1813551;79;21304;-82
2021/06/24 05:30:36;;;;;;;24.90;4.53;;;;;;;29.49;93.53;100793.02;1813328;78;21025;-83
2021/06/24 05:33:03;;;;;;;27.65;4.72;;;;;;;29.59;92.28;100796.45;1800021;79;21566;-83
2021/06/24 05:35:29;;;;;;;30.97;4.10;;;;;;;29.76;90.76;100806.94;1792408;80;21465;-83
2021/06/24 05:37:56;;;;;;;31.27;4.45;;;;;;;29.93;89.61;100808.84;1792389;80;21013;-84
2021/06/24 05:40:22;;;;;;;25.48;3.60;;;;;;;30.01;88.00;100818.83;1792323;80;21136;-84
2021/06/24 05:42:49;;;;;;;23.92;3.80;;;;;;;30.20;90.04;100809.41;1792268;80;21421;-83
2021/06/24 05:45:16;;;;;;;28.95;4.35;;;;;;;30.36;86.25;100803.58;1792300;80;21059;-83
2021/06/24 05:47:42;;;;;;;29.75;4.17;;;;;;;30.40;80.46;100807.95;1792377;80;21004;-83
2021/06/24 05:50:08;;;;;;;34.40;4.58;;;;;;;30.49;80.66;100811.77;1792372;80;20984;-82
2021/06/24 05:52:37;;;;;;;23.35;3.50;;;;;;;30.60;80.19;100809.83;1792183;79;21248;-86
2021/06/24 05:55:04;;;;;;;25.15;4.10;;;;;;;30.64;77.21;100811.22;1791788;79;20985;-84
2021/06/24 05:57:30;;;;;;;27.07;3.60;;;;;;;30.57;77.17;100813.99;1792041;80;20980;-84
2021/06/24 05:59:56;;;;;;;29.37;4.22;;;;;;;30.43;79.56;100814.72;1792117;80;20889;-88
2021/06/24 06:02:22;;;;;;;31.62;3.87;;;;;;;30.46;84.36;100813.94;1772628;80;20984;-86
2021/06/24 06:04:47;;;;;;;25.92;3.92;;;;;;;30.70;82.93;100822.97;1792422;80;21817;-89
2021/06/24 06:07:13;;;;;;;35.25;4.28;;;;;;;30.68;80.43;100823.16;1792323;80;20893;-87
2021/06/24 06:09:39;;;;;;;43.35;4.08;;;;;;;30.57;80.22;100827.30;1792319;80;20869;-88
2021/06/24 06:12:06;;;;;;;38.20;4.37;;;;;;;30.45;81.27;100821.48;1792231;79;20888;-86
2021/06/24 06:14:32;;;;;;;20.65;4.17;;;;;;;30.41;80.03;100826.81;1792393;80;21578;-87
2021/06/24 06:16:58;;;;;;;25.92;3.47;;;;;;;30.24;81.69;100822.78;1792404;80;21082;-87
2021/06/24 06:19:24;;;;;;;24.02;3.95;;;;;;;30.30;82.21;100826.19;1792270;79;20928;-86
2021/06/24 06:21:50;;;;;;;32.85;4.10;;;;;;;30.24;86.17;100827.74;1792362;80;21551;-87
2021/06/24 06:24:16;;;;;;;31.05;4.25;;;;;;;30.15;85.00;100827.27;1792606;79;20838;-87
2021/06/24 06:26:41;;;;;;;36.48;4.28;;;;;;;29.96;87.25;100831.09;1792342;80;20940;-88
2021/06/24 06:29:07;;;;;;;31.65;4.87;;;;;;;30.09;89.75;100829.61;1771095;80;21176;-88
2021/06/24 06:31:39;;;;;;;40.50;4.35;;;;;;;30.13;87.77;100825.45;1792424;80;20873;-86
2021/06/24 06:34:19;;;;;;;;;;;;;;;;;;;;;
2021/06/24 06:36:37;;;;;;;33.53;4.47;;;;;;;30.02;87.57;100829.55;1651001;86;21631;-89
2021/06/24 06:39:05;;;;;;;39.80;5.42;;;;;;;30.08;86.65;100827.20;1651208;86;21045;-87
2021/06/24 06:41:31;;;;;;;27.85;4.62;;;;;;;30.37;87.65;100832.97;1651050;86;21861;-92
2021/06/24 06:43:57;;;;;;;26.62;3.98;;;;;;;30.99;90.13;100835.62;1650605;86;21093;-88
2021/06/24 06:46:23;;;;;;;30.10;4.65;;;;;;;32.19;85.20;100828.32;1650835;86;21093;-89
2021/06/24 06:49:00;;;;;;;38.00;4.72;;;;;;;33.13;73.59;100822.56;1651464;86;21169;-90
2021/06/24 06:51:26;;;;;;;34.18;4.75;;;;;;;33.60;69.25;100823.82;1651037;86;21044;-89
2021/06/24 06:53:52;;;;;;;40.45;4.83;;;;;;;34.37;65.40;100822.05;1651275;86;21611;-89
2021/06/24 06:56:18;;;;;;;29.18;4.25;;;;;;;34.84;59.52;100819.30;1651574;86;21231;-87
2021/06/24 06:58:44;;;;;;;35.70;4.67;;;;;;;34.71;57.62;100817.06;1650890;86;21093;-88
2021/06/24 07:01:13;;;;;;;36.05;5.22;;;;;;;34.42;59.07;100827.80;1650548;86;20981;-88
2021/06/24 07:03:38;;;;;;;38.70;5.12;;;;;;;34.08;59.84;100830.58;1651092;86;21029;-90
2021/06/24 07:06:07;;;;;;;37.83;6.03;;;;;;;33.92;60.50;100837.50;1650961;86;21910;-92
2021/06/24 07:08:32;;;;;;;30.88;5.35;;;;;;;33.84;61.01;100846.38;1707649;83;21024;-88
2021/06/24 07:10:58;;;;;;;43.55;5.80;;;;;;;34.35;61.17;100837.05;1718584;83;20892;-89
2021/06/24 07:13:24;;;;;;;57.95;6.25;;;;;;;35.28;58.89;100843.48;1718346;83;21034;-88
2021/06/24 07:15:50;;;;;;;48.25;6.03;;;;;;;35.45;52.53;100843.80;1718534;83;21055;-87
2021/06/24 07:18:16;;;;;;;42.10;5.60;;;;;;;35.47;49.84;100846.17;1718261;83;21191;-88
2021/06/24 07:20:42;;;;;;;52.55;6.58;;;;;;;36.12;51.67;100853.72;1718419;83;20971;-89
2021/06/24 07:23:09;;;;;;;49.63;6.60;;;;;;;36.67;47.23;100839.41;1717951;83;21186;-88
2021/06/24 07:25:35;;;;;;;60.67;6.40;;;;;;;36.68;45.93;100838.98;1718770;83;21038;-91
2021/06/24 07:28:01;;;;;;;58.10;6.87;;;;;;;36.40;45.47;100851.56;1718753;83;20995;-94
2021/06/24 07:30:28;;;;;;;58.87;6.83;;;;;;;36.08;45.48;100857.18;1718566;83;21195;-95
2021/06/24 07:32:54;;;;;;;57.60;7.08;;;;;;;35.70;43.95;100848.22;1734056;80;21484;-92
2021/06/24 07:35:21;;;;;;;73.55;7.90;;;;;;;35.42;43.67;100844.66;1792476;79;20985;-96
2021/06/24 07:37:47;;;;;;;54.83;6.62;;;;;;;35.02;44.57;100857.64;1792507;79;21105;-91
2021/06/24 07:40:15;;;;;;;76.50;6.60;;;;;;;34.54;46.22;100859.47;1791766;80;20984;-94
2021/06/24 07:42:41;;;;;;;61.18;6.70;;;;;;;34.19;44.09;100857.05;1792394;79;22104;-94
2021/06/24 07:45:08;;;;;;;60.40;6.85;;;;;;;33.82;44.88;100864.16;1792424;80;20981;-88
2021/06/24 07:47:34;;;;;;;71.07;7.70;;;;;;;33.99;45.79;100863.81;1789260;80;20997;-90
2021/06/24 07:50:00;;;;;;;73.37;7.03;;;;;;;34.29;45.82;100875.72;1772265;80;20956;-82
2021/06/24 07:52:27;;;;;;;60.80;7.00;;;;;;;34.65;45.50;100860.75;1772429;79;37346;-85
2021/06/24 07:54:53;;;;;;;59.08;7.95;;;;;;;34.95;45.01;100850.75;1792174;80;21771;-85
2021/06/24 07:57:20;;;;;;;63.90;7.30;;;;;;;35.56;45.01;100860.46;1792351;79;20889;-86
2021/06/24 07:59:46;;;;;;;64.37;7.80;;;;;;;36.11;45.01;100850.70;1792297;80;21120;-87
2021/06/24 08:02:13;;;;;;;73.80;7.95;;;;;;;36.54;42.81;100853.33;1792319;80;20993;-83
2021/06/24 08:04:39;;;;;;;52.90;6.78;;;;;;;36.80;43.59;100848.76;1772072;80;20957;-84
2021/06/24 08:07:05;;;;;;;72.00;8.40;;;;;;;37.08;42.74;100845.14;1792324;80;21167;-88
2021/06/24 08:09:31;;;;;;;84.35;10.93;;;;;;;36.74;40.43;100846.25;1792227;79;20969;-86
2021/06/24 08:12:00;;;;;;;91.15;10.00;;;;;;;36.70;41.41;100851.17;1792087;80;20984;-87
2021/06/24 08:14:27;;;;;;;78.10;8.00;;;;;;;36.35;40.54;100857.67;1792282;80;20961;-82
2021/06/24 08:16:53;;;;;;;78.87;8.83;;;;;;;36.41;40.66;100852.34;1791889;80;21587;-82
2021/06/24 08:19:19;;;;;;;72.82;8.23;;;;;;;36.25;41.89;100853.08;1791890;80;22959;-83
2021/06/24 08:21:45;;;;;;;76.67;9.03;;;;;;;35.78;42.19;100853.11;1791996;80;20897;-84
2021/06/24 08:24:11;;;;;;;56.37;7.20;;;;;;;35.38;42.92;100857.13;1792209;80;21118;-86
2021/06/24 08:26:37;;;;;;;46.05;6.65;;;;;;;35.25;44.24;100857.73;1792226;80;20925;-84
2021/06/24 08:29:03;;;;;;;65.78;5.67;;;;;;;35.32;42.02;100858.83;1792324;80;20853;-83
2021/06/24 08:31:29;;;;;;;51.35;6.25;;;;;;;35.13;41.59;100862.52;1792325;80;21166;-84
2021/06/24 08:33:55;;;;;;;71.70;6.80;;;;;;;34.92;42.96;100864.20;1779972;79;20988;-84
2021/06/24 08:36:21;;;;;;;49.50;6.10;;;;;;;34.74;43.33;100864.41;1774312;80;21628;-84
2021/06/24 08:38:47;;;;;;;66.75;7.20;;;;;;;34.47;42.85;100865.72;1774504;80;21503;-81
2021/06/24 08:41:15;;;;;;;51.30;5.90;;;;;;;34.11;44.02;100867.52;1774408;80;21019;-83
2021/06/24 08:43:48;;;;;;;48.80;6.17;;;;;;;33.91;44.04;100865.30;1774214;80;21211;-88
2021/06/24 08:46:16;;;;;;;36.45;5.50;;;;;;;33.59;44.62;100868.94;1774013;80;21042;-82
2021/06/24 08:48:43;;;;;;;45.63;5.20;;;;;;;33.36;46.14;100868.90;1801567;79;21091;-83
2021/06/24 08:51:09;;;;;;;47.83;5.30;;;;;;;33.24;47.07;100872.18;1798435;78;21024;-83
2021/06/24 08:53:35;;;;;;;40.58;6.08;;;;;;;33.20;48.39;100875.58;1794923;79;21557;-83
2021/06/24 08:56:02;;;;;;;36.63;4.83;;;;;;;33.66;50.16;100874.49;1777372;80;21491;-84
2021/06/24 08:58:28;;;;;;;35.80;5.08;;;;;;;34.24;49.09;100871.38;1777691;80;21026;-81
2021/06/24 09:00:54;;;;;;;40.55;4.55;;;;;;;34.52;49.56;100868.85;1777387;80;21046;-79
2021/06/24 09:03:31;;;;;;;47.90;5.22;;;;;;;34.82;50.04;100873.70;1777874;80;21007;-81
2021/06/24 09:06:05;;;;;;;47.45;5.47;;;;;;;35.22;47.37;100865.58;1695191;84;21038;-82
2021/06/24 09:08:46;;;;;;;39.65;5.30;;;;;;;35.77;46.53;100868.33;1695844;84;21112;-89
2021/06/24 09:11:22;;;;;;;40.12;4.80;;;;;;;36.05;44.88;100865.67;1691900;84;21026;-84
2021/06/24 09:14:10;;;;;;;42.27;4.62;;;;;;;36.15;45.40;100862.67;1695557;83;21537;-82
2021/06/24 09:16:41;;;;;;;39.83;5.70;;;;;;;36.34;45.11;100864.52;1695278;84;21038;-80
2021/06/24 09:19:21;;;;;;;;;;;;;;;36.45;44.05;100868.53;1698043;83;21532;-82
2021/06/24 09:22:09;;;;;;;31.97;4.75;;;;;;;36.57;44.28;100864.47;1695423;83;21088;-84
2021/06/24 09:24:47;;;;;;;35.43;4.60;;;;;;;36.33;41.91;100874.96;1692077;84;21034;-83
2021/06/24 09:27:28;;;;;;;40.95;5.03;;;;;;;36.23;41.92;100870.95;1695592;84;21089;-82
2021/06/24 09:30:15;;;;;;;42.20;5.77;;;;;;;36.20;43.50;100872.59;1695912;84;21025;-82
2021/06/24 09:35:25;;;;;;;40.08;5.22;;;;;;;36.41;43.46;100883.23;1642865;87;21112;-84
2021/06/24 09:38:14;;;;;;;35.78;5.30;;;;;;;36.75;43.75;100881.56;1643097;87;20968;-82
2021/06/24 09:40:47;;;;;;;43.83;5.03;;;;;;;36.79;44.79;100886.48;1643018;87;21504;-83
2021/06/24 09:43:35;;;;;;;41.05;5.03;;;;;;;36.61;44.37;100900.91;1642968;87;21076;-80
2021/06/24 09:46:11;;;;;;;44.48;4.80;;;;;;;36.13;43.27;100901.59;1589378;90;20980;-82
2021/06/24 09:48:45;;;;;;;39.10;4.47;;;;;;;35.58;43.50;100894.48;1589122;90;21058;-82
2021/06/24 09:51:26;;;;;;;31.52;4.75;;;;;;;35.24;45.42;100896.00;1589249;90;21111;-88
2021/06/24 09:53:59;;;;;;;37.93;5.22;;;;;;;35.02;46.77;100893.45;1568856;90;21119;-82
2021/06/24 09:56:33;;;;;;;26.68;4.75;;;;;;;35.07;48.35;100891.44;1589288;89;21057;-82
2021/06/24 09:59:04;;;;;;;47.50;5.25;;;;;;;35.04;48.21;100898.64;1589399;90;21072;-81
2021/06/24 10:01:43;;;;;;;44.15;5.22;;;;;;;35.00;48.29;100894.50;1589386;90;21364;-83
2021/06/24 10:04:28;;;;;;;39.03;5.50;;;;;;;34.88;46.60;100902.65;1590925;88;21088;-82
2021/06/24 10:06:59;;;;;;;26.37;4.08;;;;;;;34.50;45.71;100898.47;1590074;90;21072;-82
2021/06/24 10:09:27;;;;;;;32.13;4.15;;;;;;;34.12;46.38;100899.28;1591375;90;21088;-83
2021/06/24 10:11:55;;;;;;;33.75;4.30;;;;;;;34.00;48.49;100902.54;1590978;90;21080;-80
2021/06/24 10:14:22;;;;;;;38.95;5.33;;;;;;;33.80;50.83;100907.14;1591289;90;21099;-83
2021/06/24 10:16:58;;;;;;;32.63;5.22;;;;;;;33.60;49.59;100906.89;1591192;90;21000;-82
2021/06/24 10:19:40;;;;;;;41.95;5.17;;;;;;;33.52;50.15;100902.55;1591284;90;21117;-81
2021/06/24 10:22:26;;;;;;;44.63;5.67;;;;;;;33.35;49.90;100907.80;1594206;85;21100;-83
2021/06/24 10:25:00;;;;;;;40.75;4.83;;;;;;;33.15;48.58;100910.34;1668579;85;21552;-82
2021/06/24 10:27:39;;;;;;;44.27;5.40;;;;;;;33.05;48.89;100913.18;1671918;85;21083;-83
2021/06/24 10:30:15;;;;;;;37.95;5.62;;;;;;;33.00;51.41;100912.41;1671478;85;21023;-86
2021/06/24 10:32:45;;;;;;;33.40;5.05;;;;;;;33.02;50.03;100916.97;1776112;79;21550;-84
2021/06/24 10:35:36;;;;;;;49.50;5.95;;;;;;;33.14;51.87;100917.72;1804151;78;20987;-83
2021/06/24 10:38:03;;;;;;;45.73;5.10;;;;;;;33.13;50.29;100918.33;1813726;79;20999;-81
2021/06/24 10:40:40;;;;;;;34.38;4.25;;;;;;;33.06;52.42;100914.16;1815321;78;21062;-83
2021/06/24 10:43:14;;;;;;;46.85;5.37;;;;;;;33.10;52.15;100910.76;1701558;84;21051;-84
2021/06/24 10:45:45;;;;;;;25.80;4.50;;;;;;;33.30;54.17;100911.63;1702393;84;21102;-83
2021/06/24 10:48:32;;;;;;;28.17;4.73;;;;;;;33.34;56.42;100914.61;1699387;84;21051;-84
2021/06/24 10:51:11;;;;;;;33.10;4.85;;;;;;;33.45;55.62;100919.53;1701910;84;21553;-84
2021/06/24 10:53:46;;;;;;;30.10;4.62;;;;;;;33.50;55.84;100918.28;1702100;84;21165;-84
2021/06/24 10:56:44;;;;;;;31.55;4.58;;;;;;;33.59;56.38;100917.86;1701957;82;21020;-86
2021/06/24 10:59:25;;;;;;;28.15;4.83;;;;;;;33.70;56.05;100919.38;1698143;84;21055;-84
2021/06/24 11:01:51;;;;;;;22.58;3.83;;;;;;;33.83;59.26;100918.90;1624963;88;21162;-88
2021/06/24 11:04:39;;;;;;;36.40;4.47;;;;;;;34.04;62.48;100917.34;1625128;88;21673;-84
2021/06/24 11:07:19;;;;;;;46.13;6.83;;;;;;;34.31;65.81;100921.66;1625334;88;21015;-88
2021/06/24 11:10:19;;;;;;;63.17;6.70;;;;;;;34.55;61.12;100921.84;1593271;89;21200;-84
2021/06/24 11:12:51;;;;;;;44.75;6.15;;;;;;;34.51;58.12;100926.06;1593075;90;21118;-84
2021/06/24 11:15:52;;;;;;;25.05;4.53;;;;;;;34.43;59.43;100926.55;1593468;90;21634;-84
2021/06/24 11:18:39;;;;;;;47.58;6.33;;;;;;;34.32;54.82;100936.45;1593272;90;21578;-87
2021/06/24 11:21:21;;;;;;;41.55;4.87;;;;;;;34.05;52.65;100937.70;1593340;90;21094;-89
2021/06/24 11:23:54;;;;;;;22.55;4.12;;;;;;;33.96;51.77;100938.15;1593188;90;21098;-83
2021/06/24 11:26:29;;;;;;;38.05;5.28;;;;;;;33.70;49.43;100935.36;1593078;90;21470;-83
2021/06/24 11:29:04;;;;;;;74.42;7.83;;;;;;;33.58;50.89;100942.84;1590864;88;21094;-82